Airfield :
LOGIN :

Register | Disclaimer

   EN    FR    IT 

 










Legend :    VFR   Marginal VFR   IFR   Intensive IFR   Very Intensive IFR
Visi :
Ceiling :
>= 8 km
>= 3000ft
5 to 8 km
1000 to 3000 ft
1500m to 5 km
500 to 1000 ft
800 to 1500m
200 to 500 ft
< 800m
< 200 ft
Symbols :   Thunderstorms  Fog  Heavy snow  Heavy precipitations  Wind > 20 kt
SIGMETs :     Misc.  Thunderstorms  Icing  Turbulence  Mountain Waves  Volcanic Ashes







- Airport Elevation : 405 ft
- IATA code : ODH


EGVO - RAF Odiham

CURRENT METAR :
  • 231312Z 23017KT 9999 FEW006 BKN009 BKN016 12/11 Q1014 GRN TEMPO FEW009 BKN016 WHT

EXPIRED METARs :
  • 231250Z 22016KT 5000 -DZ FEW005 OVC006 11/11 Q1014 YLO1 BECMG 8000 YLO1
  • 231234Z 22015KT 4000 -DZ FEW004 OVC005 11/11 Q1014 YLO1 BECMG 5000 YLO1
  • 231126Z 22016KT 9999 -DZ SCT004 BKN010 11/11 Q1014 YLO2 BECMG BKN006 YLO1

TAF AMD TAF EGVO
Valid from the 23 at 12:00 until the 24 at 00:00 UTC


231243Z 2312/2324 22014KT 3500 -DZ BKN005
PROB40
TEMPO 2312/2318 23016G26KT
BECMG 2313/2315 9999 FEW008 BKN025
TEMPO 2316/2324 SCT008
PROB30
TEMPO 2316/2319 7000 -RADZ SCT005
No reported NOTAMs for that airfield.
1 SIGMET reported for the London FIR (EGTT) :
 
Severe mountain waves
EGTT SIGMET 01 VALID 231130/231530 EGRR
EGTT LONDON FIR SEV MTW FCST WI N4914 W00600 - N5500 W00455 - N5500 E00030 - N4950 W00240 - N4914 W00600 SFC/FL150 STNR NC=



MET'MAP, your aeronautical weather chart ! - Copyright ORBIFLY December 2007 - Disclaimer

ORBIFLY MET'MAP TEAM :

Programming & Development : Alexandra Zaïnal
Concept & Development : Baudouin d'Aumeries
Co-Development & Prog : Marc-Olivier Méhu
Technical & hardware support : Manuel Goepfert

Contact : metmap@orbifly.com




SOURCES & CREDITS :

   NOAA